sensor_id;sensor_type;location;lat;lon;timestamp;temperature;humidity
66586;SHT30;53444;45.822;16.092;2023-07-13T00:00:46;24.63;75.78
66586;SHT30;53444;45.822;16.092;2023-07-13T00:03:12;24.74;75.29
66586;SHT30;53444;45.822;16.092;2023-07-13T00:05:39;24.63;75.37
66586;SHT30;53444;45.822;16.092;2023-07-13T00:08:06;24.64;75.32
66586;SHT30;53444;45.822;16.092;2023-07-13T00:10:33;24.68;75.25
66586;SHT30;53444;45.822;16.092;2023-07-13T00:13:01;24.65;75.33
66586;SHT30;53444;45.822;16.092;2023-07-13T00:15:29;24.73;75.14
66586;SHT30;53444;45.822;16.092;2023-07-13T00:17:57;24.68;75.41
66586;SHT30;53444;45.822;16.092;2023-07-13T00:20:26;24.77;75.02
66586;SHT30;53444;45.822;16.092;2023-07-13T00:22:53;24.74;75.09
66586;SHT30;53444;45.822;16.092;2023-07-13T00:25:20;24.77;74.92
66586;SHT30;53444;45.822;16.092;2023-07-13T00:27:49;24.88;74.73
66586;SHT30;53444;45.822;16.092;2023-07-13T00:30:17;24.87;74.66
66586;SHT30;53444;45.822;16.092;2023-07-13T00:32:44;24.98;74.56
66586;SHT30;53444;45.822;16.092;2023-07-13T00:35:13;25.02;74.86
66586;SHT30;53444;45.822;16.092;2023-07-13T00:37:40;24.90;75.28
66586;SHT30;53444;45.822;16.092;2023-07-13T00:40:08;24.77;75.70
66586;SHT30;53444;45.822;16.092;2023-07-13T00:42:36;24.96;75.21
66586;SHT30;53444;45.822;16.092;2023-07-13T00:45:04;25.07;74.94
66586;SHT30;53444;45.822;16.092;2023-07-13T00:47:33;24.99;75.34
66586;SHT30;53444;45.822;16.092;2023-07-13T00:50:00;24.91;75.75
66586;SHT30;53444;45.822;16.092;2023-07-13T00:52:27;24.81;76.28
66586;SHT30;53444;45.822;16.092;2023-07-13T00:54:54;24.61;76.79
66586;SHT30;53444;45.822;16.092;2023-07-13T00:57:22;24.80;76.09
66586;SHT30;53444;45.822;16.092;2023-07-13T00:59:52;24.64;76.79
66586;SHT30;53444;45.822;16.092;2023-07-13T01:02:19;24.75;76.60
66586;SHT30;53444;45.822;16.092;2023-07-13T01:04:48;24.87;75.99
66586;SHT30;53444;45.822;16.092;2023-07-13T01:07:15;24.92;75.83
66586;SHT30;53444;45.822;16.092;2023-07-13T01:09:42;24.95;75.87
66586;SHT30;53444;45.822;16.092;2023-07-13T01:12:10;24.92;75.70
66586;SHT30;53444;45.822;16.092;2023-07-13T01:14:37;24.99;75.36
66586;SHT30;53444;45.822;16.092;2023-07-13T01:17:04;24.96;75.16
66586;SHT30;53444;45.822;16.092;2023-07-13T01:19:35;24.98;75.09
66586;SHT30;53444;45.822;16.092;2023-07-13T01:22:05;24.99;75.01
66586;SHT30;53444;45.822;16.092;2023-07-13T01:24:34;24.92;75.12
66586;SHT30;53444;45.822;16.092;2023-07-13T01:27:00;24.90;75.31
66586;SHT30;53444;45.822;16.092;2023-07-13T01:29:27;24.78;75.37
66586;SHT30;53444;45.822;16.092;2023-07-13T01:31:54;24.96;75.03
66586;SHT30;53444;45.822;16.092;2023-07-13T01:34:21;25.01;74.81
66586;SHT30;53444;45.822;16.092;2023-07-13T01:36:47;25.02;74.55
66586;SHT30;53444;45.822;16.092;2023-07-13T01:39:15;24.95;74.87
66586;SHT30;53444;45.822;16.092;2023-07-13T01:41:42;24.91;75.26
66586;SHT30;53444;45.822;16.092;2023-07-13T01:44:09;24.81;75.57
66586;SHT30;53444;45.822;16.092;2023-07-13T01:46:36;24.84;75.66
66586;SHT30;53444;45.822;16.092;2023-07-13T01:49:02;24.84;75.57
66586;SHT30;53444;45.822;16.092;2023-07-13T01:51:29;24.73;75.91
66586;SHT30;53444;45.822;16.092;2023-07-13T01:53:56;24.70;76.27
66586;SHT30;53444;45.822;16.092;2023-07-13T01:56:24;24.77;75.78
66586;SHT30;53444;45.822;16.092;2023-07-13T01:58:52;24.78;75.87
66586;SHT30;53444;45.822;16.092;2023-07-13T02:01:18;24.77;75.91
66586;SHT30;53444;45.822;16.092;2023-07-13T02:03:45;24.68;75.90
66586;SHT30;53444;45.822;16.092;2023-07-13T02:06:12;24.63;76.29
66586;SHT30;53444;45.822;16.092;2023-07-13T02:08:40;24.56;76.67
66586;SHT30;53444;45.822;16.092;2023-07-13T02:11:07;24.50;76.60
66586;SHT30;53444;45.822;16.092;2023-07-13T02:13:35;24.41;76.69
66586;SHT30;53444;45.822;16.092;2023-07-13T02:16:02;24.44;76.76
66586;SHT30;53444;45.822;16.092;2023-07-13T02:18:29;24.36;77.28
66586;SHT30;53444;45.822;16.092;2023-07-13T02:20:55;24.37;77.48
66586;SHT30;53444;45.822;16.092;2023-07-13T02:23:22;24.26;77.85
66586;SHT30;53444;45.822;16.092;2023-07-13T02:25:49;24.20;77.95
66586;SHT30;53444;45.822;16.092;2023-07-13T02:28:15;24.23;77.77
66586;SHT30;53444;45.822;16.092;2023-07-13T02:30:43;24.20;77.87
66586;SHT30;53444;45.822;16.092;2023-07-13T02:33:10;24.10;77.75
66586;SHT30;53444;45.822;16.092;2023-07-13T02:35:36;24.02;77.81
66586;SHT30;53444;45.822;16.092;2023-07-13T02:38:03;24.08;77.67
66586;SHT30;53444;45.822;16.092;2023-07-13T02:40:30;24.16;77.48
66586;SHT30;53444;45.822;16.092;2023-07-13T02:42:58;24.26;77.21
66586;SHT30;53444;45.822;16.092;2023-07-13T02:45:25;24.36;76.93
66586;SHT30;53444;45.822;16.092;2023-07-13T02:47:53;24.40;76.89
66586;SHT30;53444;45.822;16.092;2023-07-13T02:50:19;24.44;76.67
66586;SHT30;53444;45.822;16.092;2023-07-13T02:52:46;24.41;76.39
66586;SHT30;53444;45.822;16.092;2023-07-13T02:55:13;24.43;76.57
66586;SHT30;53444;45.822;16.092;2023-07-13T02:57:39;24.46;76.82
66586;SHT30;53444;45.822;16.092;2023-07-13T03:00:08;24.13;77.27
66586;SHT30;53444;45.822;16.092;2023-07-13T03:02:35;24.10;77.36
66586;SHT30;53444;45.822;16.092;2023-07-13T03:05:03;24.20;77.13
66586;SHT30;53444;45.822;16.092;2023-07-13T03:07:30;24.26;76.52
66586;SHT30;53444;45.822;16.092;2023-07-13T03:09:57;24.39;75.91
66586;SHT30;53444;45.822;16.092;2023-07-13T03:12:25;24.50;74.74
66586;SHT30;53444;45.822;16.092;2023-07-13T03:14:51;24.59;74.20
66586;SHT30;53444;45.822;16.092;2023-07-13T03:17:18;24.67;73.57
66586;SHT30;53444;45.822;16.092;2023-07-13T03:19:45;24.67;73.05
66586;SHT30;53444;45.822;16.092;2023-07-13T03:22:16;24.73;72.30
66586;SHT30;53444;45.822;16.092;2023-07-13T03:24:42;24.73;71.91
66586;SHT30;53444;45.822;16.092;2023-07-13T03:27:09;24.67;71.25
66586;SHT30;53444;45.822;16.092;2023-07-13T03:29:36;24.65;71.39
66586;SHT30;53444;45.822;16.092;2023-07-13T03:32:03;24.65;71.32
66586;SHT30;53444;45.822;16.092;2023-07-13T03:34:30;24.56;71.37
66586;SHT30;53444;45.822;16.092;2023-07-13T03:36:58;24.54;71.38
66586;SHT30;53444;45.822;16.092;2023-07-13T03:39:26;24.49;71.54
66586;SHT30;53444;45.822;16.092;2023-07-13T03:41:53;24.37;71.73
66586;SHT30;53444;45.822;16.092;2023-07-13T03:44:20;24.29;71.84
66586;SHT30;53444;45.822;16.092;2023-07-13T03:46:47;24.37;71.71
66586;SHT30;53444;45.822;16.092;2023-07-13T03:49:14;24.40;71.45
66586;SHT30;53444;45.822;16.092;2023-07-13T03:51:40;24.34;71.42
66586;SHT30;53444;45.822;16.092;2023-07-13T03:54:07;24.36;70.79
66586;SHT30;53444;45.822;16.092;2023-07-13T03:56:35;24.36;69.84
66586;SHT30;53444;45.822;16.092;2023-07-13T03:59:02;24.36;67.95
66586;SHT30;53444;45.822;16.092;2023-07-13T04:01:28;24.40;65.26
66586;SHT30;53444;45.822;16.092;2023-07-13T04:03:55;24.46;63.64
66586;SHT30;53444;45.822;16.092;2023-07-13T04:06:28;24.43;63.37
66586;SHT30;53444;45.822;16.092;2023-07-13T04:08:56;24.43;63.07
66586;SHT30;53444;45.822;16.092;2023-07-13T04:11:26;24.34;63.06
66586;SHT30;53444;45.822;16.092;2023-07-13T04:13:55;24.37;63.18
66586;SHT30;53444;45.822;16.092;2023-07-13T04:16:22;24.43;63.17
66586;SHT30;53444;45.822;16.092;2023-07-13T04:18:50;24.46;63.28
66586;SHT30;53444;45.822;16.092;2023-07-13T04:21:20;24.41;63.37
66586;SHT30;53444;45.822;16.092;2023-07-13T04:23:47;24.37;63.63
66586;SHT30;53444;45.822;16.092;2023-07-13T04:26:13;24.33;63.55
66586;SHT30;53444;45.822;16.092;2023-07-13T04:28:40;24.37;63.72
66586;SHT30;53444;45.822;16.092;2023-07-13T04:31:08;24.36;63.87
66586;SHT30;53444;45.822;16.092;2023-07-13T04:33:35;24.26;64.95
66586;SHT30;53444;45.822;16.092;2023-07-13T04:36:01;24.24;65.53
66586;SHT30;53444;45.822;16.092;2023-07-13T04:38:29;24.16;66.27
66586;SHT30;53444;45.822;16.092;2023-07-13T04:40:58;24.08;66.84
66586;SHT30;53444;45.822;16.092;2023-07-13T04:43:25;23.88;67.96
66586;SHT30;53444;45.822;16.092;2023-07-13T04:45:52;23.90;68.10
66586;SHT30;53444;45.822;16.092;2023-07-13T04:48:21;23.93;68.30
66586;SHT30;53444;45.822;16.092;2023-07-13T04:50:53;23.98;68.44
66586;SHT30;53444;45.822;16.092;2023-07-13T04:53:21;23.93;68.79
66586;SHT30;53444;45.822;16.092;2023-07-13T04:55:48;23.93;68.89
66586;SHT30;53444;45.822;16.092;2023-07-13T04:58:16;23.82;69.27
66586;SHT30;53444;45.822;16.092;2023-07-13T05:00:43;23.93;69.03
66586;SHT30;53444;45.822;16.092;2023-07-13T05:03:11;23.79;69.62
66586;SHT30;53444;45.822;16.092;2023-07-13T05:05:39;23.90;69.17
66586;SHT30;53444;45.822;16.092;2023-07-13T05:08:07;23.88;69.22
66586;SHT30;53444;45.822;16.092;2023-07-13T05:10:34;23.85;69.12
66586;SHT30;53444;45.822;16.092;2023-07-13T05:13:01;23.92;69.18
66586;SHT30;53444;45.822;16.092;2023-07-13T05:15:28;24.13;68.94
66586;SHT30;53444;45.822;16.092;2023-07-13T05:17:56;24.20;68.46
66586;SHT30;53444;45.822;16.092;2023-07-13T05:20:23;24.44;68.14
66586;SHT30;53444;45.822;16.092;2023-07-13T05:22:54;24.57;67.93
66586;SHT30;53444;45.822;16.092;2023-07-13T05:25:21;24.44;67.95
66586;SHT30;53444;45.822;16.092;2023-07-13T05:27:48;24.70;67.35
66586;SHT30;53444;45.822;16.092;2023-07-13T05:30:14;24.83;67.02
66586;SHT30;53444;45.822;16.092;2023-07-13T05:32:41;24.92;66.86
66586;SHT30;53444;45.822;16.092;2023-07-13T05:35:08;24.95;66.89
66586;SHT30;53444;45.822;16.092;2023-07-13T05:37:37;24.95;67.23
66586;SHT30;53444;45.822;16.092;2023-07-13T05:40:07;24.95;66.97
66586;SHT30;53444;45.822;16.092;2023-07-13T05:42:34;25.08;67.47
66586;SHT30;53444;45.822;16.092;2023-07-13T05:45:01;25.08;67.37
66586;SHT30;53444;45.822;16.092;2023-07-13T05:47:28;25.11;67.26
66586;SHT30;53444;45.822;16.092;2023-07-13T05:49:55;25.29;66.94
66586;SHT30;53444;45.822;16.092;2023-07-13T05:52:22;25.25;66.79
66586;SHT30;53444;45.822;16.092;2023-07-13T05:54:50;25.21;67.21
66586;SHT30;53444;45.822;16.092;2023-07-13T05:57:18;25.11;67.85
66586;SHT30;53444;45.822;16.092;2023-07-13T05:59:44;25.25;67.02
66586;SHT30;53444;45.822;16.092;2023-07-13T06:02:11;24.78;68.28
66586;SHT30;53444;45.822;16.092;2023-07-13T06:04:38;25.18;67.62
66586;SHT30;53444;45.822;16.092;2023-07-13T06:07:05;25.33;66.65
66586;SHT30;53444;45.822;16.092;2023-07-13T06:09:32;25.56;66.43
66586;SHT30;53444;45.822;16.092;2023-07-13T06:12:01;25.65;66.10
66586;SHT30;53444;45.822;16.092;2023-07-13T06:14:29;25.76;65.44
66586;SHT30;53444;45.822;16.092;2023-07-13T06:16:56;25.86;65.86
66586;SHT30;53444;45.822;16.092;2023-07-13T06:19:23;25.83;65.54
66586;SHT30;53444;45.822;16.092;2023-07-13T06:21:50;25.70;66.53
66586;SHT30;53444;45.822;16.092;2023-07-13T06:24:17;25.87;66.01
66586;SHT30;53444;45.822;16.092;2023-07-13T06:26:44;25.94;65.48
66586;SHT30;53444;45.822;16.092;2023-07-13T06:29:11;25.52;66.33
66586;SHT30;53444;45.822;16.092;2023-07-13T06:31:39;25.66;66.69
66586;SHT30;53444;45.822;16.092;2023-07-13T06:34:05;25.63;66.71
66586;SHT30;53444;45.822;16.092;2023-07-13T06:36:33;25.12;68.31
66586;SHT30;53444;45.822;16.092;2023-07-13T06:39:01;25.33;68.26
66586;SHT30;53444;45.822;16.092;2023-07-13T06:41:28;25.32;68.47
66586;SHT30;53444;45.822;16.092;2023-07-13T06:43:56;25.72;67.70
66586;SHT30;53444;45.822;16.092;2023-07-13T06:46:23;25.69;67.50
66586;SHT30;53444;45.822;16.092;2023-07-13T06:48:51;25.93;66.90
66586;SHT30;53444;45.822;16.092;2023-07-13T06:51:17;26.08;66.72
66586;SHT30;53444;45.822;16.092;2023-07-13T06:53:44;26.23;65.74
66586;SHT30;53444;45.822;16.092;2023-07-13T06:56:11;26.24;65.33
66586;SHT30;53444;45.822;16.092;2023-07-13T06:58:38;25.83;66.30
66586;SHT30;53444;45.822;16.092;2023-07-13T07:01:05;26.06;66.83
66586;SHT30;53444;45.822;16.092;2023-07-13T07:03:35;26.13;67.11
66586;SHT30;53444;45.822;16.092;2023-07-13T07:06:12;26.38;65.66
66586;SHT30;53444;45.822;16.092;2023-07-13T07:08:39;26.28;65.71
66586;SHT30;53444;45.822;16.092;2023-07-13T07:11:08;26.13;65.31
66586;SHT30;53444;45.822;16.092;2023-07-13T07:13:36;26.07;65.61
66586;SHT30;53444;45.822;16.092;2023-07-13T07:16:05;26.01;65.65
66586;SHT30;53444;45.822;16.092;2023-07-13T07:18:32;25.50;66.75
66586;SHT30;53444;45.822;16.092;2023-07-13T07:20:59;25.65;66.59
66586;SHT30;53444;45.822;16.092;2023-07-13T07:23:28;26.07;66.05
66586;SHT30;53444;45.822;16.092;2023-07-13T07:25:54;26.35;65.42
66586;SHT30;53444;45.822;16.092;2023-07-13T07:28:21;26.69;63.97
66586;SHT30;53444;45.822;16.092;2023-07-13T07:30:48;26.75;63.84
66586;SHT30;53444;45.822;16.092;2023-07-13T07:33:15;26.17;64.89
66586;SHT30;53444;45.822;16.092;2023-07-13T07:35:43;26.30;64.97
66586;SHT30;53444;45.822;16.092;2023-07-13T07:38:09;26.20;64.42
66586;SHT30;53444;45.822;16.092;2023-07-13T07:40:38;26.14;65.14
66586;SHT30;53444;45.822;16.092;2023-07-13T07:43:06;26.54;65.11
66586;SHT30;53444;45.822;16.092;2023-07-13T07:45:33;26.89;65.01
66586;SHT30;53444;45.822;16.092;2023-07-13T07:48:01;27.15;64.13
66586;SHT30;53444;45.822;16.092;2023-07-13T07:50:28;27.15;63.91
66586;SHT30;53444;45.822;16.092;2023-07-13T07:52:58;27.17;64.10
66586;SHT30;53444;45.822;16.092;2023-07-13T07:55:27;27.26;63.98
66586;SHT30;53444;45.822;16.092;2023-07-13T07:57:58;27.53;63.60
66586;SHT30;53444;45.822;16.092;2023-07-13T08:00:27;27.70;62.66
66586;SHT30;53444;45.822;16.092;2023-07-13T08:02:56;27.87;61.95
66586;SHT30;53444;45.822;16.092;2023-07-13T08:05:26;27.83;62.20
66586;SHT30;53444;45.822;16.092;2023-07-13T08:07:53;27.83;62.64
66586;SHT30;53444;45.822;16.092;2023-07-13T08:10:20;27.39;63.89
66586;SHT30;53444;45.822;16.092;2023-07-13T08:12:47;27.49;63.85
66586;SHT30;53444;45.822;16.092;2023-07-13T08:15:17;27.81;63.14
66586;SHT30;53444;45.822;16.092;2023-07-13T08:17:46;28.05;63.14
66586;SHT30;53444;45.822;16.092;2023-07-13T08:20:13;28.19;61.90
66586;SHT30;53444;45.822;16.092;2023-07-13T08:22:41;28.45;61.19
66586;SHT30;53444;45.822;16.092;2023-07-13T08:25:08;28.41;61.01
66586;SHT30;53444;45.822;16.092;2023-07-13T08:27:38;28.38;61.05
66586;SHT30;53444;45.822;16.092;2023-07-13T08:30:05;28.53;60.94
66586;SHT30;53444;45.822;16.092;2023-07-13T08:32:36;28.47;62.28
66586;SHT30;53444;45.822;16.092;2023-07-13T08:35:04;28.70;62.28
66586;SHT30;53444;45.822;16.092;2023-07-13T08:37:33;29.02;60.95
66586;SHT30;53444;45.822;16.092;2023-07-13T08:40:00;28.83;61.09
66586;SHT30;53444;45.822;16.092;2023-07-13T08:42:36;28.72;61.50
66586;SHT30;53444;45.822;16.092;2023-07-13T08:45:08;28.99;62.00
66586;SHT30;53444;45.822;16.092;2023-07-13T08:47:44;29.21;61.27
66586;SHT30;53444;45.822;16.092;2023-07-13T08:50:15;28.48;61.63
66586;SHT30;53444;45.822;16.092;2023-07-13T08:52:44;28.27;62.68
66586;SHT30;53444;45.822;16.092;2023-07-13T08:55:14;28.83;62.38
66586;SHT30;53444;45.822;16.092;2023-07-13T08:57:45;29.10;60.99
66586;SHT30;53444;45.822;16.092;2023-07-13T09:00:13;29.58;60.68
66586;SHT30;53444;45.822;16.092;2023-07-13T09:02:46;28.55;61.31
66586;SHT30;53444;45.822;16.092;2023-07-13T09:05:15;28.09;62.88
66586;SHT30;53444;45.822;16.092;2023-07-13T09:08:01;28.41;62.56
66586;SHT30;53444;45.822;16.092;2023-07-13T09:10:32;28.69;61.41
66586;SHT30;53444;45.822;16.092;2023-07-13T09:13:14;27.90;63.16
66586;SHT30;53444;45.822;16.092;2023-07-13T09:15:45;28.00;63.43
66586;SHT30;53444;45.822;16.092;2023-07-13T09:18:19;28.56;63.19
66586;SHT30;53444;45.822;16.092;2023-07-13T09:20:50;29.11;63.12
66586;SHT30;53444;45.822;16.092;2023-07-13T09:23:20;29.09;62.32
66586;SHT30;53444;45.822;16.092;2023-07-13T09:25:53;29.46;61.52
66586;SHT30;53444;45.822;16.092;2023-07-13T09:28:24;30.12;59.80
66586;SHT30;53444;45.822;16.092;2023-07-13T09:30:56;30.13;60.42
66586;SHT30;53444;45.822;16.092;2023-07-13T09:33:25;29.93;59.08
66586;SHT30;53444;45.822;16.092;2023-07-13T09:35:55;29.92;61.08
66586;SHT30;53444;45.822;16.092;2023-07-13T09:38:24;30.05;59.56
66586;SHT30;53444;45.822;16.092;2023-07-13T09:41:03;30.02;60.00
66586;SHT30;53444;45.822;16.092;2023-07-13T09:43:34;30.35;59.39
66586;SHT30;53444;45.822;16.092;2023-07-13T09:46:01;29.67;60.41
66586;SHT30;53444;45.822;16.092;2023-07-13T09:48:36;29.61;61.33
66586;SHT30;53444;45.822;16.092;2023-07-13T09:51:13;29.77;61.10
66586;SHT30;53444;45.822;16.092;2023-07-13T09:53:41;29.71;60.42
66586;SHT30;53444;45.822;16.092;2023-07-13T09:56:19;29.95;60.22
66586;SHT30;53444;45.822;16.092;2023-07-13T09:58:47;30.44;58.23
66586;SHT30;53444;45.822;16.092;2023-07-13T10:01:14;29.78;60.75
66586;SHT30;53444;45.822;16.092;2023-07-13T10:03:55;29.82;61.05
66586;SHT30;53444;45.822;16.092;2023-07-13T10:06:23;29.95;60.33
66586;SHT30;53444;45.822;16.092;2023-07-13T10:08:57;30.40;59.92
66586;SHT30;53444;45.822;16.092;2023-07-13T10:11:27;30.26;61.03
66586;SHT30;53444;45.822;16.092;2023-07-13T10:14:00;29.57;61.95
66586;SHT30;53444;45.822;16.092;2023-07-13T10:16:30;29.60;62.17
66586;SHT30;53444;45.822;16.092;2023-07-13T10:19:03;29.68;62.03
66586;SHT30;53444;45.822;16.092;2023-07-13T10:21:36;29.70;61.98
66586;SHT30;53444;45.822;16.092;2023-07-13T10:24:12;29.64;62.25
66586;SHT30;53444;45.822;16.092;2023-07-13T10:26:47;30.43;60.29
66586;SHT30;53444;45.822;16.092;2023-07-13T10:29:16;30.29;59.68
66586;SHT30;53444;45.822;16.092;2023-07-13T10:31:44;30.28;60.24
66586;SHT30;53444;45.822;16.092;2023-07-13T10:34:14;29.99;60.56
66586;SHT30;53444;45.822;16.092;2023-07-13T10:36:43;30.35;60.68
66586;SHT30;53444;45.822;16.092;2023-07-13T10:39:15;29.97;60.41
66586;SHT30;53444;45.822;16.092;2023-07-13T10:41:44;29.99;59.78
66586;SHT30;53444;45.822;16.092;2023-07-13T10:44:20;30.16;60.08
66586;SHT30;53444;45.822;16.092;2023-07-13T10:46:51;29.47;61.36
66586;SHT30;53444;45.822;16.092;2023-07-13T10:49:20;29.85;60.57
66586;SHT30;53444;45.822;16.092;2023-07-13T10:51:48;30.06;59.76
66586;SHT30;53444;45.822;16.092;2023-07-13T10:54:19;30.37;59.12
66586;SHT30;53444;45.822;16.092;2023-07-13T10:56:53;30.53;59.04
66586;SHT30;53444;45.822;16.092;2023-07-13T10:59:25;30.94;58.21
66586;SHT30;53444;45.822;16.092;2023-07-13T11:01:56;31.18;57.23
66586;SHT30;53444;45.822;16.092;2023-07-13T11:04:26;30.76;59.50
66586;SHT30;53444;45.822;16.092;2023-07-13T11:06:58;31.30;57.81
66586;SHT30;53444;45.822;16.092;2023-07-13T11:09:36;30.91;58.86
66586;SHT30;53444;45.822;16.092;2023-07-13T11:12:10;31.17;58.05
66586;SHT30;53444;45.822;16.092;2023-07-13T11:15:11;31.54;56.99
66586;SHT30;53444;45.822;16.092;2023-07-13T11:17:50;31.27;58.19
66586;SHT30;53444;45.822;16.092;2023-07-13T11:20:24;31.57;56.50
66586;SHT30;53444;45.822;16.092;2023-07-13T11:26:02;31.44;56.73
66586;SHT30;53444;45.822;16.092;2023-07-13T11:28:31;32.08;56.74
66586;SHT30;53444;45.822;16.092;2023-07-13T11:31:02;32.23;55.57
66586;SHT30;53444;45.822;16.092;2023-07-13T11:33:50;31.96;56.01
66586;SHT30;53444;45.822;16.092;2023-07-13T11:36:22;31.88;55.71
66586;SHT30;53444;45.822;16.092;2023-07-13T11:38:59;31.83;55.64
66586;SHT30;53444;45.822;16.092;2023-07-13T11:41:31;31.72;55.95
66586;SHT30;53444;45.822;16.092;2023-07-13T11:44:05;31.63;57.30
66586;SHT30;53444;45.822;16.092;2023-07-13T11:46:32;31.69;56.64
66586;SHT30;53444;45.822;16.092;2023-07-13T11:48:59;32.02;55.74
66586;SHT30;53444;45.822;16.092;2023-07-13T11:51:30;32.08;57.44
66586;SHT30;53444;45.822;16.092;2023-07-13T11:54:03;32.36;55.61
66586;SHT30;53444;45.822;16.092;2023-07-13T11:56:35;32.88;55.19
66586;SHT30;53444;45.822;16.092;2023-07-13T11:59:06;32.75;55.24
66586;SHT30;53444;45.822;16.092;2023-07-13T12:01:33;32.56;55.62
66586;SHT30;53444;45.822;16.092;2023-07-13T12:04:04;32.09;56.06
66586;SHT30;53444;45.822;16.092;2023-07-13T12:06:34;32.27;55.90
66586;SHT30;53444;45.822;16.092;2023-07-13T12:09:12;32.32;55.89
66586;SHT30;53444;45.822;16.092;2023-07-13T12:11:41;32.22;55.85
66586;SHT30;53444;45.822;16.092;2023-07-13T12:14:13;32.05;56.53
66586;SHT30;53444;45.822;16.092;2023-07-13T12:16:41;31.79;56.53
66586;SHT30;53444;45.822;16.092;2023-07-13T12:19:17;31.89;56.75
66586;SHT30;53444;45.822;16.092;2023-07-13T12:21:47;31.82;56.50
66586;SHT30;53444;45.822;16.092;2023-07-13T12:24:15;31.57;57.41
66586;SHT30;53444;45.822;16.092;2023-07-13T12:26:42;31.72;56.76
66586;SHT30;53444;45.822;16.092;2023-07-13T12:29:16;31.81;57.17
66586;SHT30;53444;45.822;16.092;2023-07-13T12:31:44;31.88;56.03
66586;SHT30;53444;45.822;16.092;2023-07-13T12:34:13;31.62;56.83
66586;SHT30;53444;45.822;16.092;2023-07-13T12:36:47;31.57;56.93
66586;SHT30;53444;45.822;16.092;2023-07-13T12:39:18;31.34;57.61
66586;SHT30;53444;45.822;16.092;2023-07-13T12:41:47;31.34;57.84
66586;SHT30;53444;45.822;16.092;2023-07-13T12:44:19;31.42;57.62
66586;SHT30;53444;45.822;16.092;2023-07-13T12:46:57;31.41;57.90
66586;SHT30;53444;45.822;16.092;2023-07-13T12:49:31;31.57;58.32
66586;SHT30;53444;45.822;16.092;2023-07-13T12:52:03;31.38;58.30
66586;SHT30;53444;45.822;16.092;2023-07-13T12:54:31;31.18;58.18
66586;SHT30;53444;45.822;16.092;2023-07-13T12:56:59;30.77;59.47
66586;SHT30;53444;45.822;16.092;2023-07-13T12:59:31;31.06;58.88
66586;SHT30;53444;45.822;16.092;2023-07-13T13:02:02;31.21;58.51
66586;SHT30;53444;45.822;16.092;2023-07-13T13:04:43;30.88;58.62
66586;SHT30;53444;45.822;16.092;2023-07-13T13:07:13;30.71;59.08
66586;SHT30;53444;45.822;16.092;2023-07-13T13:09:43;30.49;59.27
66586;SHT30;53444;45.822;16.092;2023-07-13T13:12:10;30.46;59.36
66586;SHT30;53444;45.822;16.092;2023-07-13T13:14:37;30.50;59.08
66586;SHT30;53444;45.822;16.092;2023-07-13T13:17:18;30.55;58.34
66586;SHT30;53444;45.822;16.092;2023-07-13T13:19:45;30.57;58.43
66586;SHT30;53444;45.822;16.092;2023-07-13T13:22:14;30.73;58.25
66586;SHT30;53444;45.822;16.092;2023-07-13T13:24:41;30.70;59.32
66586;SHT30;53444;45.822;16.092;2023-07-13T13:27:14;30.30;59.42
66586;SHT30;53444;45.822;16.092;2023-07-13T13:29:43;30.08;59.93
66586;SHT30;53444;45.822;16.092;2023-07-13T13:32:13;29.95;59.98
66586;SHT30;53444;45.822;16.092;2023-07-13T13:34:40;29.41;60.71
66586;SHT30;53444;45.822;16.092;2023-07-13T13:37:18;29.33;61.03
66586;SHT30;53444;45.822;16.092;2023-07-13T13:39:46;29.29;60.98
66586;SHT30;53444;45.822;16.092;2023-07-13T13:42:13;29.29;61.40
66586;SHT30;53444;45.822;16.092;2023-07-13T13:44:41;29.33;61.03
66586;SHT30;53444;45.822;16.092;2023-07-13T13:47:30;29.24;61.69
66586;SHT30;53444;45.822;16.092;2023-07-13T13:49:58;29.20;61.53
66586;SHT30;53444;45.822;16.092;2023-07-13T13:52:27;29.35;61.33
66586;SHT30;53444;45.822;16.092;2023-07-13T13:54:53;29.17;61.36
66586;SHT30;53444;45.822;16.092;2023-07-13T13:57:22;28.97;61.95
66586;SHT30;53444;45.822;16.092;2023-07-13T13:59:49;28.99;62.35
66586;SHT30;53444;45.822;16.092;2023-07-13T14:02:27;28.59;63.33
66586;SHT30;53444;45.822;16.092;2023-07-13T14:05:00;28.47;64.31
66586;SHT30;53444;45.822;16.092;2023-07-13T14:07:29;27.23;66.35
66586;SHT30;53444;45.822;16.092;2023-07-13T14:09:58;26.16;73.12
66586;SHT30;53444;45.822;16.092;2023-07-13T14:12:25;25.74;75.80
66586;SHT30;53444;45.822;16.092;2023-07-13T14:14:57;25.80;76.33
66586;SHT30;53444;45.822;16.092;2023-07-13T14:17:25;26.03;73.19
66586;SHT30;53444;45.822;16.092;2023-07-13T14:19:53;27.03;71.38
66586;SHT30;53444;45.822;16.092;2023-07-13T14:22:23;27.40;71.88
66586;SHT30;53444;45.822;16.092;2023-07-13T14:24:53;27.73;70.91
66586;SHT30;53444;45.822;16.092;2023-07-13T14:27:21;27.10;71.72
66586;SHT30;53444;45.822;16.092;2023-07-13T14:29:48;26.65;72.56
66586;SHT30;53444;45.822;16.092;2023-07-13T14:32:15;26.38;72.84
66586;SHT30;53444;45.822;16.092;2023-07-13T14:34:42;26.62;71.71
66586;SHT30;53444;45.822;16.092;2023-07-13T14:37:13;26.71;71.40
66586;SHT30;53444;45.822;16.092;2023-07-13T14:39:40;26.89;70.27
66586;SHT30;53444;45.822;16.092;2023-07-13T14:42:10;26.69;70.08
66586;SHT30;53444;45.822;16.092;2023-07-13T14:44:38;26.59;70.46
66586;SHT30;53444;45.822;16.092;2023-07-13T14:47:07;26.69;70.90
66586;SHT30;53444;45.822;16.092;2023-07-13T14:49:36;27.27;69.86
66586;SHT30;53444;45.822;16.092;2023-07-13T14:52:11;27.81;67.40
66586;SHT30;53444;45.822;16.092;2023-07-13T14:54:39;27.74;66.75
66586;SHT30;53444;45.822;16.092;2023-07-13T14:57:10;27.87;67.16
66586;SHT30;53444;45.822;16.092;2023-07-13T14:59:38;27.84;67.57
66586;SHT30;53444;45.822;16.092;2023-07-13T15:02:14;27.98;67.61
66586;SHT30;53444;45.822;16.092;2023-07-13T15:04:42;28.14;67.91
66586;SHT30;53444;45.822;16.092;2023-07-13T15:07:10;28.11;67.97
66586;SHT30;53444;45.822;16.092;2023-07-13T15:09:39;28.55;67.47
66586;SHT30;53444;45.822;16.092;2023-07-13T15:12:06;28.21;68.29
66586;SHT30;53444;45.822;16.092;2023-07-13T15:14:35;28.02;68.27
66586;SHT30;53444;45.822;16.092;2023-07-13T15:17:02;28.42;68.12
66586;SHT30;53444;45.822;16.092;2023-07-13T15:19:29;29.14;66.21
66586;SHT30;53444;45.822;16.092;2023-07-13T15:21:57;29.65;65.39
66586;SHT30;53444;45.822;16.092;2023-07-13T15:24:24;30.13;64.02
66586;SHT30;53444;45.822;16.092;2023-07-13T15:26:52;31.04;61.97
66586;SHT30;53444;45.822;16.092;2023-07-13T15:29:19;31.49;60.92